createdAt,value
2022-09-12T00:01:42.280Z,76.01
2022-09-12T00:04:44.617Z,76.23
2022-09-12T00:07:46.757Z,75.73
2022-09-12T00:10:49.182Z,75.45
2022-09-12T00:13:52.359Z,75.39
2022-09-12T00:16:59.251Z,74.85
2022-09-12T00:20:02.043Z,74.10
2022-09-12T00:23:04.603Z,73.66
2022-09-12T00:26:07.912Z,73.32
2022-09-12T00:29:16.773Z,74.13
2022-09-12T00:32:19.018Z,74.27
2022-09-12T00:35:21.391Z,73.51
2022-09-12T00:38:23.462Z,72.66
2022-09-12T00:41:34.879Z,72.95
2022-09-12T00:44:36.923Z,72.73
2022-09-12T00:47:39.311Z,73.08
2022-09-12T00:50:41.449Z,72.61
2022-09-12T00:53:46.152Z,73.21
2022-09-12T00:56:51.202Z,73.28
2022-09-12T01:00:08.708Z,73.48
2022-09-12T01:03:17.709Z,72.85
2022-09-12T01:06:28.729Z,72.99
2022-09-12T01:09:31.215Z,72.58
2022-09-12T01:12:34.765Z,72.19
2022-09-12T01:15:38.900Z,71.69
2022-09-12T01:19:20.163Z,71.68
2022-09-12T01:22:25.095Z,71.73
2022-09-12T01:26:00.408Z,71.91
2022-09-12T01:29:11.203Z,71.27
2022-09-12T01:32:19.269Z,70.19
2022-09-12T01:35:32.491Z,70.32
2022-09-12T01:38:42.590Z,69.01
2022-09-12T01:41:54.511Z,69.37
2022-09-12T01:45:23.106Z,69.64
2022-09-12T01:48:33.069Z,69.49
2022-09-12T01:51:48.912Z,69.40
2022-09-12T01:55:09.950Z,69.62
2022-09-12T01:58:18.963Z,69.86
2022-09-12T02:01:27.428Z,70.01
2022-09-12T02:04:34.769Z,71.15
2022-09-12T02:07:43.279Z,72.00
2022-09-12T02:10:53.698Z,72.25
2022-09-12T02:14:06.616Z,72.31
2022-09-12T02:17:22.325Z,72.85
2022-09-12T02:20:47.500Z,72.83
2022-09-12T02:23:57.270Z,72.75
2022-09-12T02:27:09.993Z,72.26
2022-09-12T02:30:16.436Z,72.56
2022-09-12T02:33:30.924Z,72.94
2022-09-12T02:36:40.054Z,73.75
2022-09-12T02:39:45.330Z,74.22
2022-09-12T02:42:48.025Z,74.73
2022-09-12T02:45:50.337Z,75.34
2022-09-12T02:48:54.304Z,76.37
2022-09-12T02:51:56.506Z,77.03
2022-09-12T02:54:59.840Z,77.21
2022-09-12T02:58:05.163Z,77.61
2022-09-12T03:01:14.856Z,78.04
2022-09-12T03:04:55.723Z,78.17
2022-09-12T03:08:20.286Z,78.09
2022-09-12T03:11:42.231Z,77.06
2022-09-12T03:15:01.508Z,77.03
2022-09-12T03:18:20.898Z,76.62
2022-09-12T03:21:33.486Z,76.28
2022-09-12T03:24:40.939Z,76.52
2022-09-12T03:27:53.032Z,75.85
2022-09-12T03:30:56.503Z,75.46
2022-09-12T03:34:02.013Z,75.66
2022-09-12T03:37:04.170Z,75.57
2022-09-12T03:40:08.075Z,75.37
2022-09-12T03:43:11.200Z,75.44
2022-09-12T03:46:13.988Z,75.66
2022-09-12T03:49:16.553Z,76.00
2022-09-12T03:52:19.331Z,75.74
2022-09-12T03:55:21.389Z,76.27
2022-09-12T03:58:24.193Z,76.33
2022-09-12T04:01:26.304Z,76.26
2022-09-12T04:04:28.659Z,76.20
2022-09-12T04:07:30.808Z,76.66
2022-09-12T04:10:33.374Z,76.21
2022-09-12T04:13:36.527Z,75.60
2022-09-12T04:16:38.874Z,75.32
2022-09-12T04:19:40.925Z,74.94
2022-09-12T04:22:43.272Z,73.92
2022-09-12T04:25:52.949Z,73.12
2022-09-12T04:28:57.525Z,72.34
2022-09-12T04:31:59.575Z,72.32
2022-09-12T04:35:02.207Z,72.24
2022-09-12T04:38:04.254Z,72.18
2022-09-12T04:41:20.715Z,72.94
2022-09-12T04:44:22.837Z,72.89
2022-09-12T04:47:25.199Z,73.06
2022-09-12T04:50:27.742Z,73.70
2022-09-12T04:53:30.173Z,74.24
2022-09-12T04:56:34.362Z,75.07
2022-09-12T04:59:36.697Z,75.27
2022-09-12T05:02:39.583Z,75.34
2022-09-12T05:05:41.974Z,74.54
2022-09-12T05:08:44.140Z,74.80
2022-09-12T05:12:03.802Z,74.62
2022-09-12T05:15:07.299Z,73.98
2022-09-12T05:18:09.627Z,73.80
2022-09-12T05:21:15.829Z,73.26
2022-09-12T05:24:18.352Z,73.02
2022-09-12T05:27:20.526Z,73.15
2022-09-12T05:30:22.904Z,72.78
2022-09-12T05:33:25.306Z,72.55
2022-09-12T05:36:31.901Z,72.11
2022-09-12T05:39:33.980Z,71.28
2022-09-12T05:42:36.792Z,71.41
2022-09-12T05:45:39.352Z,70.81
2022-09-12T05:48:43.641Z,71.11
2022-09-12T05:51:46.119Z,71.43
2022-09-12T05:54:48.745Z,71.25
2022-09-12T05:57:51.098Z,70.78
2022-09-12T06:00:53.459Z,70.74
2022-09-12T06:03:57.704Z,70.52
2022-09-12T06:07:00.284Z,70.89
2022-09-12T06:10:05.318Z,70.21
2022-09-12T06:13:08.637Z,70.58
2022-09-12T06:16:14.557Z,69.86
2022-09-12T06:19:21.542Z,70.53
2022-09-12T06:22:23.911Z,70.46
2022-09-12T06:25:26.393Z,69.30
2022-09-12T06:28:29.022Z,69.05
2022-09-12T06:31:36.645Z,68.57
2022-09-12T06:34:39.310Z,69.00
2022-09-12T06:37:44.383Z,69.20
2022-09-12T06:40:47.058Z,68.89
2022-09-12T06:43:49.107Z,68.52
2022-09-12T06:46:54.212Z,68.41
2022-09-12T06:49:56.334Z,67.91
2022-09-12T06:52:58.652Z,67.95
2022-09-12T06:56:03.875Z,68.28
2022-09-12T06:59:06.751Z,67.80
2022-09-12T07:02:09.974Z,68.91
2022-09-12T07:05:12.967Z,68.99
2022-09-12T07:08:15.063Z,69.48
2022-09-12T07:11:23.780Z,68.34
2022-09-12T07:14:26.066Z,69.98
2022-09-12T07:17:28.847Z,69.59
2022-09-12T07:20:32.887Z,68.58
2022-09-12T07:23:35.219Z,68.34
2022-09-12T07:26:38.811Z,67.40
2022-09-12T07:29:41.297Z,65.22
2022-09-12T07:32:43.391Z,63.93
2022-09-12T07:35:45.708Z,62.13
2022-09-12T07:38:48.749Z,60.94
2022-09-12T07:41:52.042Z,59.43
2022-09-12T07:44:54.136Z,59.67
2022-09-12T07:47:56.713Z,57.87
2022-09-12T07:51:04.329Z,56.75
2022-09-12T07:54:09.890Z,54.08
2022-09-12T07:57:11.999Z,52.62
2022-09-12T08:00:16.045Z,51.75
2022-09-12T08:03:19.570Z,49.06
2022-09-12T08:06:25.939Z,48.72
2022-09-12T08:09:28.276Z,47.17
2022-09-12T08:12:32.235Z,45.71
2022-09-12T08:15:34.767Z,45.47
2022-09-12T08:18:37.120Z,44.74
2022-09-12T08:21:39.599Z,44.62
2022-09-12T08:24:41.892Z,44.03
2022-09-12T08:27:44.286Z,43.92
2022-09-12T08:30:46.598Z,42.27
2022-09-12T08:33:49.267Z,41.45
2022-09-12T08:36:54.163Z,41.24
2022-09-12T08:39:56.977Z,40.78
2022-09-12T08:43:11.626Z,40.97
2022-09-12T08:46:23.722Z,41.62
2022-09-12T08:49:33.775Z,42.67
2022-09-12T08:52:58.436Z,42.76
2022-09-12T08:56:00.586Z,46.60
2022-09-12T08:59:03.305Z,43.38
2022-09-12T09:02:32.944Z,42.33
2022-09-12T09:06:03.058Z,42.69
2022-09-12T09:09:11.942Z,42.93
2022-09-12T09:12:29.051Z,44.00
2022-09-12T09:15:36.203Z,43.33
2022-09-12T09:18:40.736Z,42.36
2022-09-12T09:22:04.351Z,42.20
2022-09-12T09:25:19.707Z,41.87
2022-09-12T09:28:49.800Z,42.60
2022-09-12T09:31:55.924Z,42.11
2022-09-12T09:34:58.274Z,41.74
2022-09-12T09:38:39.398Z,41.78
2022-09-12T09:41:47.309Z,43.01
2022-09-12T09:44:53.468Z,43.09
2022-09-12T09:48:06.171Z,44.24
2022-09-12T09:51:09.452Z,43.89
2022-09-12T09:54:23.276Z,46.69
2022-09-12T09:57:34.730Z,45.76
2022-09-12T10:00:38.543Z,45.79
2022-09-12T10:03:48.685Z,46.51
2022-09-12T10:06:56.943Z,46.10
2022-09-12T10:10:07.677Z,46.23
2022-09-12T10:13:24.623Z,47.22
2022-09-12T10:16:32.755Z,46.89
2022-09-12T10:19:37.532Z,50.95
2022-09-12T10:22:39.957Z,49.11
2022-09-12T10:25:47.729Z,49.76
2022-09-12T10:28:55.956Z,50.08
2022-09-12T10:32:02.090Z,52.46
2022-09-12T10:35:09.133Z,52.27
2022-09-12T10:38:22.747Z,51.16
2022-09-12T10:41:25.421Z,52.97
2022-09-12T10:44:34.161Z,50.94
2022-09-12T10:47:37.927Z,51.13
2022-09-12T10:50:41.951Z,51.88
2022-09-12T10:53:46.732Z,49.84
2022-09-12T10:57:07.744Z,51.37
2022-09-12T11:00:17.632Z,48.22
2022-09-12T11:03:43.795Z,51.34
2022-09-12T11:07:13.679Z,51.87
2022-09-12T11:10:46.293Z,53.20
2022-09-12T11:13:58.262Z,52.04
2022-09-12T11:17:08.867Z,50.42
2022-09-12T11:20:40.922Z,50.38
2022-09-12T11:24:01.494Z,50.08
2022-09-12T11:27:26.711Z,49.34
2022-09-12T11:30:37.213Z,50.85
2022-09-12T11:33:45.684Z,50.75
2022-09-12T11:36:50.675Z,50.50
2022-09-12T11:39:57.796Z,50.66
2022-09-12T11:43:06.593Z,50.71
2022-09-12T11:46:58.579Z,52.12
2022-09-12T11:50:05.477Z,53.54
2022-09-12T11:53:19.341Z,53.53
2022-09-12T11:56:21.463Z,53.04
2022-09-12T11:59:42.764Z,54.45
2022-09-12T12:03:17.361Z,52.73
2022-09-12T12:06:33.491Z,52.94
2022-09-12T12:09:36.501Z,54.25
2022-09-12T12:12:39.037Z,52.25
2022-09-12T12:15:49.822Z,52.05
2022-09-12T12:18:58.093Z,51.60
2022-09-12T12:22:12.434Z,51.56
2022-09-12T12:25:18.361Z,52.17
2022-09-12T12:28:43.126Z,52.06
2022-09-12T12:32:03.586Z,52.03
2022-09-12T12:35:46.281Z,51.24
2022-09-12T12:38:48.620Z,50.38
2022-09-12T12:41:50.699Z,50.08
2022-09-12T12:44:53.226Z,50.52
2022-09-12T12:47:59.853Z,49.07
2022-09-12T12:51:39.824Z,49.45
2022-09-12T12:54:41.852Z,49.63
2022-09-12T12:57:50.893Z,46.39
2022-09-12T13:01:16.512Z,46.98
2022-09-12T13:04:22.300Z,46.24
2022-09-12T13:07:29.056Z,46.79
2022-09-12T13:10:31.815Z,47.34
2022-09-12T13:13:41.767Z,47.27
2022-09-12T13:16:56.424Z,48.02
2022-09-12T13:20:30.100Z,48.10
2022-09-12T13:23:32.819Z,48.34
2022-09-12T13:26:42.015Z,49.03
2022-09-12T13:29:44.364Z,49.23
2022-09-12T13:32:46.450Z,48.80
2022-09-12T13:36:06.405Z,48.78
2022-09-12T13:39:28.828Z,47.86
2022-09-12T13:42:39.343Z,47.47
2022-09-12T13:45:43.571Z,47.08
2022-09-12T13:48:46.550Z,46.40
2022-09-12T13:52:18.419Z,46.73
2022-09-12T13:55:41.668Z,46.16
2022-09-12T13:58:56.794Z,45.92
2022-09-12T14:01:59.208Z,46.82
2022-09-12T14:05:11.795Z,46.18
2022-09-12T14:08:15.283Z,47.02
2022-09-12T14:11:25.115Z,45.87
2022-09-12T14:14:36.528Z,45.75
2022-09-12T14:17:39.610Z,45.72
2022-09-12T14:20:42.697Z,46.21
2022-09-12T14:23:48.077Z,47.07
2022-09-12T14:26:56.624Z,47.23
2022-09-12T14:30:03.794Z,47.27
2022-09-12T14:33:05.831Z,46.97
2022-09-12T14:36:19.393Z,47.14
2022-09-12T14:39:38.165Z,45.45
2022-09-12T14:42:42.458Z,45.95
2022-09-12T14:45:51.935Z,45.44
2022-09-12T14:49:08.413Z,45.02
2022-09-12T14:52:33.085Z,43.48
2022-09-12T14:55:43.399Z,42.75
2022-09-12T14:58:45.493Z,41.83
2022-09-12T15:01:47.955Z,42.33
2022-09-12T15:04:53.116Z,42.07
2022-09-12T15:08:02.574Z,43.09
2022-09-12T15:11:06.953Z,42.98
2022-09-12T15:14:13.597Z,42.81
2022-09-12T15:17:15.678Z,43.61
2022-09-12T15:20:17.984Z,43.27
2022-09-12T15:23:33.093Z,43.08
2022-09-12T15:26:35.605Z,43.29
2022-09-12T15:29:38.525Z,43.37
2022-09-12T15:32:43.362Z,44.26
2022-09-12T15:35:46.035Z,42.38
2022-09-12T15:38:49.222Z,41.71
2022-09-12T15:41:51.551Z,40.48
2022-09-12T15:44:53.875Z,40.68
2022-09-12T15:47:56.715Z,41.39
2022-09-12T15:51:01.627Z,41.67
2022-09-12T15:54:04.886Z,41.63
2022-09-12T15:57:07.936Z,42.40
2022-09-12T16:00:10.655Z,42.62
2022-09-12T16:03:25.250Z,43.04
2022-09-12T16:06:33.560Z,43.04
2022-09-12T16:09:38.421Z,42.11
2022-09-12T16:12:40.847Z,42.16
2022-09-12T16:15:42.982Z,42.63
2022-09-12T16:18:45.445Z,42.13
2022-09-12T16:21:47.955Z,42.40
2022-09-12T16:24:50.277Z,42.68
2022-09-12T16:27:52.431Z,43.56
2022-09-12T16:31:02.453Z,43.38
2022-09-12T16:34:04.610Z,43.68
2022-09-12T16:37:06.928Z,44.03
2022-09-12T16:40:09.700Z,44.06
2022-09-12T16:43:12.114Z,43.71
2022-09-12T16:46:15.939Z,44.39
2022-09-12T16:49:18.366Z,44.24
2022-09-12T16:52:20.597Z,44.38
2022-09-12T16:55:22.941Z,44.77
2022-09-12T16:58:25.446Z,46.12
2022-09-12T17:01:27.913Z,44.97
2022-09-12T17:04:30.059Z,45.70
2022-09-12T17:07:34.120Z,46.83
2022-09-12T17:10:41.102Z,46.17
2022-09-12T17:14:03.690Z,46.81
2022-09-12T17:17:07.222Z,47.07
2022-09-12T17:20:09.597Z,47.71
2022-09-12T17:23:11.685Z,46.77
2022-09-12T17:26:14.946Z,46.86
2022-09-12T17:29:17.988Z,46.86
2022-09-12T17:32:20.326Z,46.87
2022-09-12T17:35:22.366Z,47.37
2022-09-12T17:38:25.453Z,48.04
2022-09-12T17:41:29.453Z,48.37
2022-09-12T17:44:31.884Z,47.77
2022-09-12T17:47:34.003Z,46.81
2022-09-12T17:50:39.522Z,46.70
2022-09-12T17:53:42.557Z,46.38
2022-09-12T17:56:46.725Z,46.33
2022-09-12T17:59:48.799Z,46.05
2022-09-12T18:02:51.155Z,46.24
2022-09-12T18:05:55.810Z,46.08
2022-09-12T18:09:03.085Z,46.52
2022-09-12T18:12:05.972Z,47.57
2022-09-12T18:15:08.694Z,47.83
2022-09-12T18:18:11.072Z,47.55
2022-09-12T18:21:13.438Z,48.40
2022-09-12T18:24:15.951Z,48.89
2022-09-12T18:27:18.031Z,49.61
2022-09-12T18:30:22.893Z,50.26
2022-09-12T18:33:25.333Z,49.53
2022-09-12T18:36:29.134Z,49.72
2022-09-12T18:39:31.232Z,50.31
2022-09-12T18:42:33.571Z,50.25
2022-09-12T18:45:35.719Z,50.67
2022-09-12T18:48:38.541Z,51.19
2022-09-12T18:51:41.775Z,51.00
2022-09-12T18:54:44.279Z,50.85
2022-09-12T18:57:46.878Z,51.46
2022-09-12T19:00:50.059Z,51.57
2022-09-12T19:03:53.743Z,51.40
2022-09-12T19:06:56.075Z,52.50
2022-09-12T19:09:58.207Z,52.03
2022-09-12T19:13:01.730Z,51.51
2022-09-12T19:16:09.100Z,51.92
2022-09-12T19:19:11.576Z,52.76
2022-09-12T19:22:13.658Z,51.96
2022-09-12T19:25:16.048Z,51.74
2022-09-12T19:28:18.136Z,51.70
2022-09-12T19:31:21.761Z,51.74
2022-09-12T19:34:23.900Z,51.80
2022-09-12T19:37:26.287Z,52.53
2022-09-12T19:40:28.414Z,52.39
2022-09-12T19:43:32.069Z,52.44
2022-09-12T19:46:34.347Z,52.17
2022-09-12T19:49:36.747Z,51.78
2022-09-12T19:52:38.828Z,51.48
2022-09-12T19:55:41.278Z,51.25
2022-09-12T19:58:46.073Z,50.86
2022-09-12T20:01:48.563Z,50.26
2022-09-12T20:04:51.443Z,50.21
2022-09-12T20:07:53.934Z,49.19
2022-09-12T20:10:57.200Z,49.43
2022-09-12T20:13:59.539Z,49.62
2022-09-12T20:17:02.007Z,49.33
2022-09-12T20:20:06.816Z,49.17
2022-09-12T20:23:09.275Z,50.04
2022-09-12T20:26:11.470Z,49.81
2022-09-12T20:29:14.253Z,50.27
2022-09-12T20:32:18.208Z,50.57
2022-09-12T20:35:20.660Z,50.84
2022-09-12T20:38:22.727Z,52.79
2022-09-12T20:41:27.424Z,55.61
2022-09-12T20:44:30.243Z,56.56
2022-09-12T20:47:32.617Z,57.63
2022-09-12T20:50:34.708Z,57.28
2022-09-12T20:53:37.450Z,57.42
2022-09-12T20:56:39.561Z,58.04
2022-09-12T20:59:42.552Z,58.35
2022-09-12T21:02:44.703Z,59.06
2022-09-12T21:05:47.280Z,60.03
2022-09-12T21:08:50.554Z,60.00
2022-09-12T21:11:52.908Z,60.23
2022-09-12T21:14:55.120Z,60.93
2022-09-12T21:17:57.923Z,60.75
2022-09-12T21:21:00.315Z,60.45
2022-09-12T21:24:04.534Z,60.64
2022-09-12T21:27:06.853Z,61.16
2022-09-12T21:30:09.513Z,61.22
2022-09-12T21:33:11.626Z,61.59
2022-09-12T21:36:14.250Z,62.11
2022-09-12T21:39:16.291Z,62.30
2022-09-12T21:42:18.682Z,61.60
2022-09-12T21:45:20.739Z,61.56
2022-09-12T21:48:23.106Z,62.73
2022-09-12T21:51:25.344Z,63.55
2022-09-12T21:54:27.821Z,64.07
2022-09-12T21:57:29.984Z,63.90
2022-09-12T22:00:32.520Z,64.70
2022-09-12T22:03:34.898Z,64.18
2022-09-12T22:06:37.199Z,63.95
2022-09-12T22:09:39.545Z,64.78
2022-09-12T22:12:46.059Z,65.77
2022-09-12T22:15:53.063Z,66.36
2022-09-12T22:18:55.161Z,66.84
2022-09-12T22:22:16.240Z,67.16
2022-09-12T22:25:20.147Z,67.93
2022-09-12T22:28:23.146Z,68.36
2022-09-12T22:31:26.955Z,68.77
2022-09-12T22:34:29.916Z,69.55
2022-09-12T22:37:32.002Z,69.83
2022-09-12T22:40:35.012Z,70.47
2022-09-12T22:43:37.619Z,70.29
2022-09-12T22:46:40.357Z,70.00
2022-09-12T22:49:42.521Z,69.77
2022-09-12T22:52:44.878Z,70.21
2022-09-12T22:55:47.398Z,69.79
2022-09-12T22:58:50.747Z,69.28
2022-09-12T23:01:52.837Z,69.07
2022-09-12T23:04:55.194Z,69.39
2022-09-12T23:07:57.362Z,69.66
2022-09-12T23:11:01.490Z,69.76
2022-09-12T23:14:03.615Z,70.43
2022-09-12T23:17:05.959Z,70.70
2022-09-12T23:20:08.458Z,70.26
2022-09-12T23:23:10.939Z,70.53
2022-09-12T23:26:31.151Z,70.58
2022-09-12T23:29:35.233Z,70.21
2022-09-12T23:32:37.343Z,70.75
2022-09-12T23:35:39.651Z,70.17
2022-09-12T23:38:44.017Z,71.26
2022-09-12T23:41:46.399Z,71.71
2022-09-12T23:44:48.462Z,71.83
2022-09-12T23:47:50.874Z,71.46
2022-09-12T23:50:53.872Z,71.94
2022-09-12T23:53:56.421Z,72.36
2022-09-12T23:56:58.485Z,72.94
